sensor_id;sensor_type;location;lat;lon;timestamp;P1;durP1;ratioP1;P2;durP2;ratioP2
12591;SDS011;6361;52.120;5.108;2023-12-07T00:00:16;23.40;;;11.32;;
12591;SDS011;6361;52.120;5.108;2023-12-07T00:02:44;18.40;;;11.65;;
12591;SDS011;6361;52.120;5.108;2023-12-07T00:05:10;17.98;;;11.13;;
12591;SDS011;6361;52.120;5.108;2023-12-07T00:07:35;18.30;;;10.88;;
12591;SDS011;6361;52.120;5.108;2023-12-07T00:10:00;14.70;;;10.10;;
12591;SDS011;6361;52.120;5.108;2023-12-07T00:12:26;16.45;;;10.13;;
12591;SDS011;6361;52.120;5.108;2023-12-07T00:14:51;16.27;;;9.45;;
12591;SDS011;6361;52.120;5.108;2023-12-07T00:17:16;17.52;;;9.40;;
12591;SDS011;6361;52.120;5.108;2023-12-07T00:19:42;16.58;;;10.27;;
12591;SDS011;6361;52.120;5.108;2023-12-07T00:22:07;13.85;;;8.90;;
12591;SDS011;6361;52.120;5.108;2023-12-07T00:24:32;14.88;;;8.65;;
12591;SDS011;6361;52.120;5.108;2023-12-07T00:26:58;17.38;;;10.10;;
12591;SDS011;6361;52.120;5.108;2023-12-07T00:29:23;14.23;;;9.32;;
12591;SDS011;6361;52.120;5.108;2023-12-07T00:31:48;16.25;;;9.55;;
12591;SDS011;6361;52.120;5.108;2023-12-07T00:34:14;12.25;;;8.60;;
12591;SDS011;6361;52.120;5.108;2023-12-07T00:36:39;15.43;;;8.95;;
12591;SDS011;6361;52.120;5.108;2023-12-07T00:39:06;12.82;;;8.82;;
12591;SDS011;6361;52.120;5.108;2023-12-07T00:41:31;16.90;;;9.85;;
12591;SDS011;6361;52.120;5.108;2023-12-07T00:43:57;13.98;;;8.90;;
12591;SDS011;6361;52.120;5.108;2023-12-07T00:46:22;13.05;;;9.30;;
12591;SDS011;6361;52.120;5.108;2023-12-07T00:48:48;13.38;;;8.70;;
12591;SDS011;6361;52.120;5.108;2023-12-07T00:51:13;14.27;;;9.27;;
12591;SDS011;6361;52.120;5.108;2023-12-07T00:53:40;15.25;;;9.07;;
12591;SDS011;6361;52.120;5.108;2023-12-07T00:56:05;16.45;;;9.35;;
12591;SDS011;6361;52.120;5.108;2023-12-07T00:58:31;25.52;;;11.77;;
12591;SDS011;6361;52.120;5.108;2023-12-07T01:00:57;21.10;;;10.32;;
12591;SDS011;6361;52.120;5.108;2023-12-07T01:03:22;31.08;;;13.52;;
12591;SDS011;6361;52.120;5.108;2023-12-07T01:05:47;32.47;;;14.02;;
12591;SDS011;6361;52.120;5.108;2023-12-07T01:08:13;23.83;;;11.02;;
12591;SDS011;6361;52.120;5.108;2023-12-07T01:10:38;21.35;;;10.52;;
12591;SDS011;6361;52.120;5.108;2023-12-07T01:13:04;15.60;;;8.95;;
12591;SDS011;6361;52.120;5.108;2023-12-07T01:15:29;13.75;;;8.85;;
12591;SDS011;6361;52.120;5.108;2023-12-07T01:17:54;13.45;;;8.02;;
12591;SDS011;6361;52.120;5.108;2023-12-07T01:20:20;15.13;;;8.77;;
12591;SDS011;6361;52.120;5.108;2023-12-07T01:22:45;16.55;;;9.75;;
12591;SDS011;6361;52.120;5.108;2023-12-07T01:25:11;27.52;;;11.82;;
12591;SDS011;6361;52.120;5.108;2023-12-07T01:27:36;25.35;;;11.70;;
12591;SDS011;6361;52.120;5.108;2023-12-07T01:30:02;21.17;;;10.35;;
12591;SDS011;6361;52.120;5.108;2023-12-07T01:32:28;17.33;;;10.13;;
12591;SDS011;6361;52.120;5.108;2023-12-07T01:34:54;18.55;;;9.98;;
12591;SDS011;6361;52.120;5.108;2023-12-07T01:37:19;17.15;;;9.48;;
12591;SDS011;6361;52.120;5.108;2023-12-07T01:39:44;16.63;;;9.50;;
12591;SDS011;6361;52.120;5.108;2023-12-07T01:42:10;17.33;;;10.05;;
12591;SDS011;6361;52.120;5.108;2023-12-07T01:44:37;16.77;;;9.60;;
12591;SDS011;6361;52.120;5.108;2023-12-07T01:47:02;18.33;;;9.27;;
12591;SDS011;6361;52.120;5.108;2023-12-07T01:49:28;13.27;;;9.23;;
12591;SDS011;6361;52.120;5.108;2023-12-07T01:51:54;13.60;;;8.70;;
12591;SDS011;6361;52.120;5.108;2023-12-07T01:54:19;13.35;;;8.77;;
12591;SDS011;6361;52.120;5.108;2023-12-07T01:56:44;15.60;;;8.88;;
12591;SDS011;6361;52.120;5.108;2023-12-07T01:59:10;16.90;;;10.40;;
12591;SDS011;6361;52.120;5.108;2023-12-07T02:01:36;15.98;;;9.80;;
12591;SDS011;6361;52.120;5.108;2023-12-07T02:04:01;17.63;;;9.90;;
12591;SDS011;6361;52.120;5.108;2023-12-07T02:06:26;19.55;;;10.55;;
12591;SDS011;6361;52.120;5.108;2023-12-07T02:08:52;22.80;;;10.40;;
12591;SDS011;6361;52.120;5.108;2023-12-07T02:11:17;17.83;;;9.40;;
12591;SDS011;6361;52.120;5.108;2023-12-07T02:13:43;20.35;;;10.35;;
12591;SDS011;6361;52.120;5.108;2023-12-07T02:16:11;17.67;;;9.80;;
12591;SDS011;6361;52.120;5.108;2023-12-07T02:18:41;18.95;;;9.82;;
12591;SDS011;6361;52.120;5.108;2023-12-07T02:21:33;17.45;;;9.60;;
12591;SDS011;6361;52.120;5.108;2023-12-07T02:24:01;13.88;;;8.85;;
12591;SDS011;6361;52.120;5.108;2023-12-07T02:26:36;17.42;;;9.52;;
12591;SDS011;6361;52.120;5.108;2023-12-07T02:29:03;16.58;;;9.20;;
12591;SDS011;6361;52.120;5.108;2023-12-07T02:31:28;19.00;;;10.25;;
12591;SDS011;6361;52.120;5.108;2023-12-07T02:33:54;18.83;;;9.73;;
12591;SDS011;6361;52.120;5.108;2023-12-07T02:36:20;18.35;;;10.63;;
12591;SDS011;6361;52.120;5.108;2023-12-07T02:38:48;26.15;;;12.30;;
12591;SDS011;6361;52.120;5.108;2023-12-07T02:41:14;22.92;;;11.60;;
12591;SDS011;6361;52.120;5.108;2023-12-07T02:43:40;21.05;;;10.45;;
12591;SDS011;6361;52.120;5.108;2023-12-07T02:46:05;23.48;;;10.82;;
12591;SDS011;6361;52.120;5.108;2023-12-07T02:48:31;30.23;;;12.18;;
12591;SDS011;6361;52.120;5.108;2023-12-07T02:50:56;17.15;;;10.52;;
12591;SDS011;6361;52.120;5.108;2023-12-07T02:53:22;19.75;;;10.20;;
12591;SDS011;6361;52.120;5.108;2023-12-07T02:55:47;17.80;;;9.77;;
12591;SDS011;6361;52.120;5.108;2023-12-07T02:58:12;17.27;;;9.68;;
12591;SDS011;6361;52.120;5.108;2023-12-07T03:00:38;13.70;;;8.57;;
12591;SDS011;6361;52.120;5.108;2023-12-07T03:03:03;14.52;;;9.23;;
12591;SDS011;6361;52.120;5.108;2023-12-07T03:05:28;12.93;;;8.80;;
12591;SDS011;6361;52.120;5.108;2023-12-07T03:07:54;13.38;;;8.88;;
12591;SDS011;6361;52.120;5.108;2023-12-07T03:10:19;14.15;;;9.13;;
12591;SDS011;6361;52.120;5.108;2023-12-07T03:12:44;14.85;;;9.23;;
12591;SDS011;6361;52.120;5.108;2023-12-07T03:15:10;28.15;;;13.35;;
12591;SDS011;6361;52.120;5.108;2023-12-07T03:17:35;17.85;;;10.32;;
12591;SDS011;6361;52.120;5.108;2023-12-07T03:20:02;22.35;;;10.65;;
12591;SDS011;6361;52.120;5.108;2023-12-07T03:22:29;15.48;;;9.57;;
12591;SDS011;6361;52.120;5.108;2023-12-07T03:24:55;15.90;;;8.70;;
12591;SDS011;6361;52.120;5.108;2023-12-07T03:27:20;14.82;;;8.70;;
12591;SDS011;6361;52.120;5.108;2023-12-07T03:29:45;13.65;;;8.75;;
12591;SDS011;6361;52.120;5.108;2023-12-07T03:32:11;20.10;;;10.02;;
12591;SDS011;6361;52.120;5.108;2023-12-07T03:34:36;16.63;;;9.25;;
12591;SDS011;6361;52.120;5.108;2023-12-07T03:37:01;14.32;;;9.27;;
12591;SDS011;6361;52.120;5.108;2023-12-07T03:39:28;16.30;;;9.98;;
12591;SDS011;6361;52.120;5.108;2023-12-07T03:41:54;16.45;;;9.48;;
12591;SDS011;6361;52.120;5.108;2023-12-07T03:44:20;15.60;;;9.68;;
12591;SDS011;6361;52.120;5.108;2023-12-07T03:46:46;17.58;;;9.77;;
12591;SDS011;6361;52.120;5.108;2023-12-07T03:49:11;14.13;;;9.70;;
12591;SDS011;6361;52.120;5.108;2023-12-07T03:51:37;14.45;;;11.02;;
12591;SDS011;6361;52.120;5.108;2023-12-07T03:54:03;17.55;;;10.80;;
12591;SDS011;6361;52.120;5.108;2023-12-07T03:56:29;16.35;;;10.25;;
12591;SDS011;6361;52.120;5.108;2023-12-07T03:58:55;20.58;;;11.65;;
12591;SDS011;6361;52.120;5.108;2023-12-07T04:01:25;19.38;;;10.75;;
12591;SDS011;6361;52.120;5.108;2023-12-07T04:03:52;20.02;;;11.68;;
12591;SDS011;6361;52.120;5.108;2023-12-07T04:06:17;29.27;;;13.88;;
12591;SDS011;6361;52.120;5.108;2023-12-07T04:08:43;20.25;;;11.98;;
12591;SDS011;6361;52.120;5.108;2023-12-07T04:11:09;22.30;;;12.52;;
12591;SDS011;6361;52.120;5.108;2023-12-07T04:13:34;20.90;;;11.52;;
12591;SDS011;6361;52.120;5.108;2023-12-07T04:16:00;22.35;;;12.35;;
12591;SDS011;6361;52.120;5.108;2023-12-07T04:18:25;18.50;;;11.65;;
12591;SDS011;6361;52.120;5.108;2023-12-07T04:20:50;20.52;;;11.15;;
12591;SDS011;6361;52.120;5.108;2023-12-07T04:23:16;22.48;;;11.30;;
12591;SDS011;6361;52.120;5.108;2023-12-07T04:25:41;24.60;;;12.30;;
12591;SDS011;6361;52.120;5.108;2023-12-07T04:28:06;20.30;;;11.60;;
12591;SDS011;6361;52.120;5.108;2023-12-07T04:30:32;23.17;;;13.00;;
12591;SDS011;6361;52.120;5.108;2023-12-07T04:32:58;22.63;;;12.63;;
12591;SDS011;6361;52.120;5.108;2023-12-07T04:35:23;21.88;;;12.43;;
12591;SDS011;6361;52.120;5.108;2023-12-07T04:37:48;21.05;;;12.05;;
12591;SDS011;6361;52.120;5.108;2023-12-07T04:40:14;20.65;;;11.73;;
12591;SDS011;6361;52.120;5.108;2023-12-07T04:42:40;22.05;;;11.55;;
12591;SDS011;6361;52.120;5.108;2023-12-07T04:45:06;17.75;;;11.27;;
12591;SDS011;6361;52.120;5.108;2023-12-07T04:47:32;24.13;;;12.65;;
12591;SDS011;6361;52.120;5.108;2023-12-07T04:49:58;19.55;;;11.70;;
12591;SDS011;6361;52.120;5.108;2023-12-07T04:52:23;22.23;;;12.32;;
12591;SDS011;6361;52.120;5.108;2023-12-07T04:54:49;26.17;;;13.40;;
12591;SDS011;6361;52.120;5.108;2023-12-07T04:57:14;23.35;;;12.90;;
12591;SDS011;6361;52.120;5.108;2023-12-07T04:59:39;21.38;;;12.48;;
12591;SDS011;6361;52.120;5.108;2023-12-07T05:02:05;21.55;;;12.27;;
12591;SDS011;6361;52.120;5.108;2023-12-07T05:04:31;24.33;;;13.27;;
12591;SDS011;6361;52.120;5.108;2023-12-07T05:06:58;24.63;;;13.43;;
12591;SDS011;6361;52.120;5.108;2023-12-07T05:09:24;30.05;;;13.70;;
12591;SDS011;6361;52.120;5.108;2023-12-07T05:11:51;23.05;;;12.30;;
12591;SDS011;6361;52.120;5.108;2023-12-07T05:14:16;22.98;;;12.60;;
12591;SDS011;6361;52.120;5.108;2023-12-07T05:16:41;20.13;;;13.05;;
12591;SDS011;6361;52.120;5.108;2023-12-07T05:19:07;22.85;;;12.90;;
12591;SDS011;6361;52.120;5.108;2023-12-07T05:21:32;25.23;;;13.90;;
12591;SDS011;6361;52.120;5.108;2023-12-07T05:23:57;21.42;;;13.32;;
12591;SDS011;6361;52.120;5.108;2023-12-07T05:26:23;21.98;;;13.75;;
12591;SDS011;6361;52.120;5.108;2023-12-07T05:28:48;28.42;;;15.13;;
12591;SDS011;6361;52.120;5.108;2023-12-07T05:31:15;31.27;;;14.32;;
12591;SDS011;6361;52.120;5.108;2023-12-07T05:33:41;33.33;;;15.27;;
12591;SDS011;6361;52.120;5.108;2023-12-07T05:36:07;31.40;;;15.90;;
12591;SDS011;6361;52.120;5.108;2023-12-07T05:38:37;43.85;;;16.85;;
12591;SDS011;6361;52.120;5.108;2023-12-07T05:41:02;61.20;;;17.80;;
12591;SDS011;6361;52.120;5.108;2023-12-07T05:43:28;128.35;;;18.65;;
12591;SDS011;6361;52.120;5.108;2023-12-07T05:45:53;108.18;;;18.70;;
12591;SDS011;6361;52.120;5.108;2023-12-07T05:48:18;93.57;;;17.95;;
12591;SDS011;6361;52.120;5.108;2023-12-07T05:50:44;177.02;;;19.75;;
12591;SDS011;6361;52.120;5.108;2023-12-07T05:53:09;107.75;;;18.42;;
12591;SDS011;6361;52.120;5.108;2023-12-07T05:55:35;102.30;;;18.35;;
12591;SDS011;6361;52.120;5.108;2023-12-07T05:58:01;108.63;;;19.08;;
12591;SDS011;6361;52.120;5.108;2023-12-07T06:00:28;81.80;;;20.35;;
12591;SDS011;6361;52.120;5.108;2023-12-07T06:02:54;145.57;;;21.25;;
12591;SDS011;6361;52.120;5.108;2023-12-07T06:05:19;131.02;;;20.38;;
12591;SDS011;6361;52.120;5.108;2023-12-07T06:07:44;111.80;;;20.80;;
12591;SDS011;6361;52.120;5.108;2023-12-07T06:10:10;88.95;;;21.40;;
12591;SDS011;6361;52.120;5.108;2023-12-07T06:12:36;129.65;;;21.42;;
12591;SDS011;6361;52.120;5.108;2023-12-07T06:15:01;107.18;;;21.38;;
12591;SDS011;6361;52.120;5.108;2023-12-07T06:17:26;131.80;;;22.15;;
12591;SDS011;6361;52.120;5.108;2023-12-07T06:19:52;81.65;;;21.27;;
12591;SDS011;6361;52.120;5.108;2023-12-07T06:22:17;58.85;;;21.02;;
12591;SDS011;6361;52.120;5.108;2023-12-07T06:24:42;52.40;;;21.13;;
12591;SDS011;6361;52.120;5.108;2023-12-07T06:27:08;65.70;;;21.58;;
12591;SDS011;6361;52.120;5.108;2023-12-07T06:29:35;80.57;;;22.25;;
12591;SDS011;6361;52.120;5.108;2023-12-07T06:32:02;51.70;;;21.00;;
12591;SDS011;6361;52.120;5.108;2023-12-07T06:34:28;47.85;;;22.00;;
12591;SDS011;6361;52.120;5.108;2023-12-07T06:36:54;62.97;;;21.48;;
12591;SDS011;6361;52.120;5.108;2023-12-07T06:39:19;40.78;;;21.63;;
12591;SDS011;6361;52.120;5.108;2023-12-07T06:41:44;49.03;;;21.88;;
12591;SDS011;6361;52.120;5.108;2023-12-07T06:44:10;81.57;;;22.65;;
12591;SDS011;6361;52.120;5.108;2023-12-07T06:46:35;65.15;;;23.20;;
12591;SDS011;6361;52.120;5.108;2023-12-07T06:49:00;63.45;;;22.35;;
12591;SDS011;6361;52.120;5.108;2023-12-07T06:51:26;86.68;;;23.27;;
12591;SDS011;6361;52.120;5.108;2023-12-07T06:53:51;87.25;;;23.73;;
12591;SDS011;6361;52.120;5.108;2023-12-07T06:56:17;90.85;;;23.58;;
12591;SDS011;6361;52.120;5.108;2023-12-07T06:58:42;117.07;;;23.08;;
12591;SDS011;6361;52.120;5.108;2023-12-07T07:01:07;75.60;;;22.17;;
12591;SDS011;6361;52.120;5.108;2023-12-07T07:03:33;86.35;;;20.40;;
12591;SDS011;6361;52.120;5.108;2023-12-07T07:06:00;113.40;;;22.33;;
12591;SDS011;6361;52.120;5.108;2023-12-07T07:08:25;103.85;;;22.67;;
12591;SDS011;6361;52.120;5.108;2023-12-07T07:10:51;76.50;;;21.63;;
12591;SDS011;6361;52.120;5.108;2023-12-07T07:13:16;92.50;;;22.65;;
12591;SDS011;6361;52.120;5.108;2023-12-07T07:15:42;107.03;;;22.65;;
12591;SDS011;6361;52.120;5.108;2023-12-07T07:18:11;70.55;;;22.33;;
12591;SDS011;6361;52.120;5.108;2023-12-07T07:20:36;103.88;;;22.90;;
12591;SDS011;6361;52.120;5.108;2023-12-07T07:23:01;65.03;;;23.02;;
12591;SDS011;6361;52.120;5.108;2023-12-07T07:25:27;92.80;;;22.02;;
12591;SDS011;6361;52.120;5.108;2023-12-07T07:27:52;118.13;;;23.10;;
12591;SDS011;6361;52.120;5.108;2023-12-07T07:30:19;72.60;;;22.65;;
12591;SDS011;6361;52.120;5.108;2023-12-07T07:32:45;96.10;;;21.73;;
12591;SDS011;6361;52.120;5.108;2023-12-07T07:35:10;55.58;;;22.38;;
12591;SDS011;6361;52.120;5.108;2023-12-07T07:37:37;67.85;;;21.88;;
12591;SDS011;6361;52.120;5.108;2023-12-07T07:40:03;94.57;;;22.15;;
12591;SDS011;6361;52.120;5.108;2023-12-07T07:42:32;115.43;;;21.45;;
12591;SDS011;6361;52.120;5.108;2023-12-07T07:44:57;80.65;;;21.77;;
12591;SDS011;6361;52.120;5.108;2023-12-07T07:47:23;59.13;;;20.92;;
12591;SDS011;6361;52.120;5.108;2023-12-07T07:49:51;104.78;;;21.83;;
12591;SDS011;6361;52.120;5.108;2023-12-07T07:52:16;108.93;;;21.30;;
12591;SDS011;6361;52.120;5.108;2023-12-07T07:54:42;89.30;;;21.75;;
12591;SDS011;6361;52.120;5.108;2023-12-07T07:57:07;78.22;;;19.73;;
12591;SDS011;6361;52.120;5.108;2023-12-07T07:59:32;119.85;;;21.58;;
12591;SDS011;6361;52.120;5.108;2023-12-07T08:01:58;66.50;;;19.88;;
12591;SDS011;6361;52.120;5.108;2023-12-07T08:04:23;66.50;;;20.98;;
12591;SDS011;6361;52.120;5.108;2023-12-07T08:06:51;77.80;;;20.50;;
12591;SDS011;6361;52.120;5.108;2023-12-07T08:09:16;53.70;;;19.42;;
12591;SDS011;6361;52.120;5.108;2023-12-07T08:11:41;58.25;;;19.17;;
12591;SDS011;6361;52.120;5.108;2023-12-07T08:14:07;94.45;;;19.23;;
12591;SDS011;6361;52.120;5.108;2023-12-07T08:16:33;63.63;;;19.55;;
12591;SDS011;6361;52.120;5.108;2023-12-07T08:18:59;37.20;;;18.00;;
12591;SDS011;6361;52.120;5.108;2023-12-07T08:21:24;63.72;;;18.88;;
12591;SDS011;6361;52.120;5.108;2023-12-07T08:23:50;92.78;;;19.55;;
12591;SDS011;6361;52.120;5.108;2023-12-07T08:26:16;68.95;;;16.75;;
12591;SDS011;6361;52.120;5.108;2023-12-07T08:28:42;79.13;;;16.35;;
12591;SDS011;6361;52.120;5.108;2023-12-07T08:31:07;48.20;;;16.80;;
12591;SDS011;6361;52.120;5.108;2023-12-07T08:33:33;55.65;;;18.60;;
12591;SDS011;6361;52.120;5.108;2023-12-07T08:36:04;53.33;;;17.70;;
12591;SDS011;6361;52.120;5.108;2023-12-07T08:38:30;58.20;;;17.58;;
12591;SDS011;6361;52.120;5.108;2023-12-07T08:40:55;49.05;;;18.58;;
12591;SDS011;6361;52.120;5.108;2023-12-07T08:43:21;55.30;;;19.02;;
12591;SDS011;6361;52.120;5.108;2023-12-07T08:45:50;66.35;;;17.52;;
12591;SDS011;6361;52.120;5.108;2023-12-07T08:48:16;40.88;;;16.80;;
12591;SDS011;6361;52.120;5.108;2023-12-07T08:50:42;39.15;;;16.75;;
12591;SDS011;6361;52.120;5.108;2023-12-07T08:53:08;49.17;;;16.27;;
12591;SDS011;6361;52.120;5.108;2023-12-07T08:55:33;65.65;;;15.68;;
12591;SDS011;6361;52.120;5.108;2023-12-07T08:57:58;63.40;;;15.63;;
12591;SDS011;6361;52.120;5.108;2023-12-07T09:00:25;74.78;;;15.57;;
12591;SDS011;6361;52.120;5.108;2023-12-07T09:02:53;42.80;;;14.80;;
12591;SDS011;6361;52.120;5.108;2023-12-07T09:05:18;56.75;;;14.38;;
12591;SDS011;6361;52.120;5.108;2023-12-07T09:07:44;43.17;;;14.40;;
12591;SDS011;6361;52.120;5.108;2023-12-07T09:10:10;49.50;;;12.98;;
12591;SDS011;6361;52.120;5.108;2023-12-07T09:12:36;50.15;;;13.15;;
12591;SDS011;6361;52.120;5.108;2023-12-07T09:15:02;37.28;;;13.23;;
12591;SDS011;6361;52.120;5.108;2023-12-07T09:17:28;52.50;;;11.80;;
12591;SDS011;6361;52.120;5.108;2023-12-07T09:19:53;75.00;;;12.25;;
12591;SDS011;6361;52.120;5.108;2023-12-07T09:22:19;63.90;;;11.98;;
12591;SDS011;6361;52.120;5.108;2023-12-07T09:24:45;22.42;;;9.60;;
12591;SDS011;6361;52.120;5.108;2023-12-07T09:27:11;58.78;;;11.55;;
12591;SDS011;6361;52.120;5.108;2023-12-07T09:29:39;65.15;;;11.85;;
12591;SDS011;6361;52.120;5.108;2023-12-07T09:32:05;61.10;;;12.93;;
12591;SDS011;6361;52.120;5.108;2023-12-07T09:34:32;56.42;;;11.65;;
12591;SDS011;6361;52.120;5.108;2023-12-07T09:37:09;43.40;;;12.70;;
12591;SDS011;6361;52.120;5.108;2023-12-07T09:39:35;42.97;;;11.95;;
12591;SDS011;6361;52.120;5.108;2023-12-07T09:42:01;49.95;;;12.20;;
12591;SDS011;6361;52.120;5.108;2023-12-07T09:44:26;28.95;;;12.55;;
12591;SDS011;6361;52.120;5.108;2023-12-07T09:46:52;52.47;;;12.55;;
12591;SDS011;6361;52.120;5.108;2023-12-07T09:49:17;69.47;;;13.13;;
12591;SDS011;6361;52.120;5.108;2023-12-07T09:51:43;48.15;;;12.35;;
12591;SDS011;6361;52.120;5.108;2023-12-07T09:54:09;47.15;;;11.68;;
12591;SDS011;6361;52.120;5.108;2023-12-07T09:56:35;57.13;;;12.27;;
12591;SDS011;6361;52.120;5.108;2023-12-07T09:59:01;45.17;;;12.10;;
12591;SDS011;6361;52.120;5.108;2023-12-07T10:01:30;48.80;;;12.55;;
12591;SDS011;6361;52.120;5.108;2023-12-07T10:04:17;38.15;;;10.98;;
12591;SDS011;6361;52.120;5.108;2023-12-07T10:06:44;71.65;;;12.13;;
12591;SDS011;6361;52.120;5.108;2023-12-07T10:09:13;52.67;;;11.70;;
12591;SDS011;6361;52.120;5.108;2023-12-07T10:11:39;47.00;;;13.05;;
12591;SDS011;6361;52.120;5.108;2023-12-07T10:14:06;40.83;;;11.68;;
12591;SDS011;6361;52.120;5.108;2023-12-07T10:16:32;23.15;;;11.73;;
12591;SDS011;6361;52.120;5.108;2023-12-07T10:19:12;33.58;;;11.57;;
12591;SDS011;6361;52.120;5.108;2023-12-07T10:21:42;23.92;;;10.70;;
12591;SDS011;6361;52.120;5.108;2023-12-07T10:24:08;41.47;;;11.70;;
12591;SDS011;6361;52.120;5.108;2023-12-07T10:26:34;37.90;;;10.88;;
12591;SDS011;6361;52.120;5.108;2023-12-07T10:29:01;24.40;;;10.55;;
12591;SDS011;6361;52.120;5.108;2023-12-07T10:31:29;34.28;;;10.55;;
12591;SDS011;6361;52.120;5.108;2023-12-07T10:33:56;25.98;;;11.02;;
12591;SDS011;6361;52.120;5.108;2023-12-07T10:36:21;27.23;;;11.30;;
12591;SDS011;6361;52.120;5.108;2023-12-07T10:38:46;26.90;;;11.10;;
12591;SDS011;6361;52.120;5.108;2023-12-07T10:41:16;35.83;;;10.45;;
12591;SDS011;6361;52.120;5.108;2023-12-07T10:43:43;39.53;;;10.70;;
12591;SDS011;6361;52.120;5.108;2023-12-07T10:46:13;22.17;;;9.63;;
12591;SDS011;6361;52.120;5.108;2023-12-07T10:48:41;26.13;;;10.77;;
12591;SDS011;6361;52.120;5.108;2023-12-07T10:51:09;27.70;;;10.65;;
12591;SDS011;6361;52.120;5.108;2023-12-07T10:53:40;26.58;;;10.85;;
12591;SDS011;6361;52.120;5.108;2023-12-07T10:56:10;34.28;;;10.55;;
12591;SDS011;6361;52.120;5.108;2023-12-07T10:58:36;26.88;;;11.05;;
12591;SDS011;6361;52.120;5.108;2023-12-07T11:01:02;31.25;;;11.68;;
12591;SDS011;6361;52.120;5.108;2023-12-07T11:03:28;36.28;;;11.75;;
12591;SDS011;6361;52.120;5.108;2023-12-07T11:05:56;25.13;;;11.73;;
12591;SDS011;6361;52.120;5.108;2023-12-07T11:10:54;33.13;;;12.73;;
12591;SDS011;6361;52.120;5.108;2023-12-07T11:13:29;31.80;;;11.90;;
12591;SDS011;6361;52.120;5.108;2023-12-07T11:15:56;35.92;;;12.52;;
12591;SDS011;6361;52.120;5.108;2023-12-07T11:18:24;33.92;;;12.75;;
12591;SDS011;6361;52.120;5.108;2023-12-07T11:20:50;39.50;;;12.73;;
12591;SDS011;6361;52.120;5.108;2023-12-07T11:23:16;33.95;;;13.02;;
12591;SDS011;6361;52.120;5.108;2023-12-07T11:25:45;28.05;;;13.23;;
12591;SDS011;6361;52.120;5.108;2023-12-07T11:28:11;46.45;;;13.52;;
12591;SDS011;6361;52.120;5.108;2023-12-07T11:30:37;38.55;;;13.38;;
12591;SDS011;6361;52.120;5.108;2023-12-07T11:33:03;37.75;;;14.02;;
12591;SDS011;6361;52.120;5.108;2023-12-07T11:35:29;35.05;;;14.63;;
12591;SDS011;6361;52.120;5.108;2023-12-07T11:38:07;34.25;;;14.82;;
12591;SDS011;6361;52.120;5.108;2023-12-07T11:40:43;47.15;;;15.07;;
12591;SDS011;6361;52.120;5.108;2023-12-07T11:43:16;49.30;;;15.05;;
12591;SDS011;6361;52.120;5.108;2023-12-07T11:45:48;40.08;;;15.93;;
12591;SDS011;6361;52.120;5.108;2023-12-07T11:48:15;48.03;;;14.85;;
12591;SDS011;6361;52.120;5.108;2023-12-07T11:53:35;50.25;;;15.07;;
12591;SDS011;6361;52.120;5.108;2023-12-07T11:56:02;46.35;;;16.70;;
12591;SDS011;6361;52.120;5.108;2023-12-07T11:58:29;49.15;;;17.48;;
12591;SDS011;6361;52.120;5.108;2023-12-07T12:00:56;54.47;;;17.45;;
12591;SDS011;6361;52.120;5.108;2023-12-07T12:03:25;40.78;;;16.73;;
12591;SDS011;6361;52.120;5.108;2023-12-07T12:05:51;47.90;;;17.50;;
12591;SDS011;6361;52.120;5.108;2023-12-07T12:08:17;51.33;;;17.25;;
12591;SDS011;6361;52.120;5.108;2023-12-07T12:10:43;42.47;;;16.58;;
12591;SDS011;6361;52.120;5.108;2023-12-07T12:13:09;42.83;;;17.63;;
12591;SDS011;6361;52.120;5.108;2023-12-07T12:15:34;41.95;;;17.70;;
12591;SDS011;6361;52.120;5.108;2023-12-07T12:18:00;42.80;;;18.77;;
12591;SDS011;6361;52.120;5.108;2023-12-07T12:20:26;43.75;;;17.58;;
12591;SDS011;6361;52.120;5.108;2023-12-07T12:22:52;39.47;;;17.38;;
12591;SDS011;6361;52.120;5.108;2023-12-07T12:25:24;42.03;;;18.27;;
12591;SDS011;6361;52.120;5.108;2023-12-07T12:27:55;48.65;;;17.98;;
12591;SDS011;6361;52.120;5.108;2023-12-07T12:30:21;46.70;;;17.73;;
12591;SDS011;6361;52.120;5.108;2023-12-07T12:32:50;40.15;;;17.42;;
12591;SDS011;6361;52.120;5.108;2023-12-07T12:35:16;42.25;;;20.58;;
12591;SDS011;6361;52.120;5.108;2023-12-07T12:37:43;40.65;;;18.27;;
12591;SDS011;6361;52.120;5.108;2023-12-07T12:40:10;39.92;;;18.33;;
12591;SDS011;6361;52.120;5.108;2023-12-07T12:42:36;39.20;;;17.92;;
12591;SDS011;6361;52.120;5.108;2023-12-07T12:45:07;38.25;;;17.15;;
12591;SDS011;6361;52.120;5.108;2023-12-07T12:47:33;41.10;;;19.30;;
12591;SDS011;6361;52.120;5.108;2023-12-07T12:50:00;41.17;;;18.38;;
12591;SDS011;6361;52.120;5.108;2023-12-07T12:52:25;39.50;;;18.17;;
12591;SDS011;6361;52.120;5.108;2023-12-07T12:54:51;39.45;;;17.15;;
12591;SDS011;6361;52.120;5.108;2023-12-07T12:57:17;41.90;;;18.88;;
12591;SDS011;6361;52.120;5.108;2023-12-07T12:59:44;43.45;;;19.92;;
12591;SDS011;6361;52.120;5.108;2023-12-07T13:02:10;43.03;;;20.40;;
12591;SDS011;6361;52.120;5.108;2023-12-07T13:04:35;41.03;;;19.40;;
12591;SDS011;6361;52.120;5.108;2023-12-07T13:07:00;40.63;;;19.35;;
12591;SDS011;6361;52.120;5.108;2023-12-07T13:09:26;39.10;;;17.50;;
12591;SDS011;6361;52.120;5.108;2023-12-07T13:11:51;42.95;;;20.02;;
12591;SDS011;6361;52.120;5.108;2023-12-07T13:14:16;41.60;;;20.92;;
12591;SDS011;6361;52.120;5.108;2023-12-07T13:16:42;45.90;;;21.13;;
12591;SDS011;6361;52.120;5.108;2023-12-07T13:19:07;44.55;;;20.10;;
12591;SDS011;6361;52.120;5.108;2023-12-07T13:21:33;39.47;;;18.77;;
12591;SDS011;6361;52.120;5.108;2023-12-07T13:23:58;40.55;;;18.83;;
12591;SDS011;6361;52.120;5.108;2023-12-07T13:26:24;39.20;;;18.92;;
12591;SDS011;6361;52.120;5.108;2023-12-07T13:28:49;37.20;;;18.50;;
12591;SDS011;6361;52.120;5.108;2023-12-07T13:31:15;39.35;;;18.92;;
12591;SDS011;6361;52.120;5.108;2023-12-07T13:33:40;38.17;;;19.25;;
12591;SDS011;6361;52.120;5.108;2023-12-07T13:36:06;38.20;;;18.42;;
12591;SDS011;6361;52.120;5.108;2023-12-07T13:38:32;35.88;;;19.30;;
12591;SDS011;6361;52.120;5.108;2023-12-07T13:40:59;37.88;;;18.38;;
12591;SDS011;6361;52.120;5.108;2023-12-07T13:43:25;35.78;;;19.00;;
12591;SDS011;6361;52.120;5.108;2023-12-07T13:45:50;36.17;;;19.63;;
12591;SDS011;6361;52.120;5.108;2023-12-07T13:48:16;36.35;;;19.25;;
12591;SDS011;6361;52.120;5.108;2023-12-07T13:50:42;38.33;;;18.63;;
12591;SDS011;6361;52.120;5.108;2023-12-07T13:53:07;31.70;;;17.42;;
12591;SDS011;6361;52.120;5.108;2023-12-07T13:55:37;32.50;;;17.98;;
12591;SDS011;6361;52.120;5.108;2023-12-07T13:58:05;33.55;;;18.75;;
12591;SDS011;6361;52.120;5.108;2023-12-07T14:00:34;32.00;;;17.38;;
12591;SDS011;6361;52.120;5.108;2023-12-07T14:03:00;37.75;;;20.33;;
12591;SDS011;6361;52.120;5.108;2023-12-07T14:05:25;31.83;;;17.23;;
12591;SDS011;6361;52.120;5.108;2023-12-07T14:07:51;30.75;;;17.30;;
12591;SDS011;6361;52.120;5.108;2023-12-07T14:10:16;35.63;;;17.90;;
12591;SDS011;6361;52.120;5.108;2023-12-07T14:12:42;30.98;;;18.08;;
12591;SDS011;6361;52.120;5.108;2023-12-07T14:15:07;35.10;;;18.92;;
12591;SDS011;6361;52.120;5.108;2023-12-07T14:17:33;40.13;;;19.48;;
12591;SDS011;6361;52.120;5.108;2023-12-07T14:20:05;34.53;;;19.63;;
12591;SDS011;6361;52.120;5.108;2023-12-07T14:22:32;36.70;;;20.15;;
12591;SDS011;6361;52.120;5.108;2023-12-07T14:24:58;33.53;;;19.25;;
12591;SDS011;6361;52.120;5.108;2023-12-07T14:27:23;33.55;;;18.58;;
12591;SDS011;6361;52.120;5.108;2023-12-07T14:29:49;32.70;;;19.27;;
12591;SDS011;6361;52.120;5.108;2023-12-07T14:32:14;34.72;;;20.23;;
12591;SDS011;6361;52.120;5.108;2023-12-07T14:34:40;37.90;;;20.48;;